createdAt,value
2023-04-26T00:00:27.759Z,207.45
2023-04-26T00:01:27.778Z,206.41
2023-04-26T00:02:27.970Z,207.06
2023-04-26T00:03:27.939Z,206.15
2023-04-26T00:04:34.338Z,207.71
2023-04-26T00:05:31.718Z,206.93
2023-04-26T00:06:27.741Z,207.58
2023-04-26T00:07:27.687Z,207.71
2023-04-26T00:08:27.703Z,207.45
2023-04-26T00:09:27.695Z,207.71
2023-04-26T00:10:33.892Z,208.24
2023-04-26T00:11:27.678Z,208.10
2023-04-26T00:12:27.789Z,207.58
2023-04-26T00:13:27.671Z,207.97
2023-04-26T00:14:27.648Z,207.45
2023-04-26T00:15:27.619Z,207.97
2023-04-26T00:16:33.847Z,208.76
2023-04-26T00:17:27.592Z,207.97
2023-04-26T00:18:27.588Z,206.41
2023-04-26T00:19:27.566Z,209.29
2023-04-26T00:20:27.534Z,208.24
2023-04-26T00:21:33.803Z,208.63
2023-04-26T00:22:27.558Z,208.24
2023-04-26T00:23:27.517Z,208.90
2023-04-26T00:24:27.480Z,208.10
2023-04-26T00:25:27.460Z,208.63
2023-04-26T00:26:27.492Z,207.32
2023-04-26T00:27:33.745Z,208.90
2023-04-26T00:28:27.440Z,209.29
2023-04-26T00:29:27.464Z,209.43
2023-04-26T00:30:27.393Z,209.56
2023-04-26T00:31:27.439Z,209.96
2023-04-26T00:32:27.467Z,211.31
2023-04-26T00:33:33.674Z,207.84
2023-04-26T00:34:27.421Z,209.29
2023-04-26T00:35:27.374Z,210.50
2023-04-26T00:36:27.386Z,209.96
2023-04-26T00:37:27.372Z,210.77
2023-04-26T00:38:27.301Z,210.36
2023-04-26T00:39:33.590Z,211.04
2023-04-26T00:40:27.277Z,208.90
2023-04-26T00:41:27.273Z,209.43
2023-04-26T00:42:27.278Z,211.44
2023-04-26T00:43:27.266Z,211.44
2023-04-26T00:44:33.523Z,211.44
2023-04-26T00:45:27.250Z,211.31
2023-04-26T00:46:27.328Z,210.23
2023-04-26T00:47:27.238Z,210.63
2023-04-26T00:48:27.184Z,212.54
2023-04-26T00:49:27.212Z,209.83
2023-04-26T00:50:33.420Z,210.09
2023-04-26T00:51:27.175Z,210.36
2023-04-26T00:52:27.162Z,211.17
2023-04-26T00:53:27.186Z,210.90
2023-04-26T00:54:27.123Z,210.50
2023-04-26T00:55:27.235Z,211.17
2023-04-26T00:56:33.371Z,210.90
2023-04-26T00:57:27.112Z,210.90
2023-04-26T00:58:27.239Z,212.12
2023-04-26T00:59:27.064Z,211.31
2023-04-26T01:00:27.033Z,211.31
2023-04-26T01:01:27.038Z,211.85
2023-04-26T01:02:33.413Z,213.09
2023-04-26T01:03:27.386Z,212.26
2023-04-26T01:04:27.112Z,212.12
2023-04-26T01:05:26.996Z,213.09
2023-04-26T01:06:26.977Z,212.95
2023-04-26T01:07:26.970Z,212.95
2023-04-26T01:08:33.217Z,213.91
2023-04-26T01:09:26.935Z,213.64
2023-04-26T01:10:26.959Z,214.19
2023-04-26T01:11:26.939Z,214.19
2023-04-26T01:12:26.974Z,213.09
2023-04-26T01:13:33.114Z,214.61
2023-04-26T01:14:26.935Z,213.64
2023-04-26T01:15:26.901Z,214.47
2023-04-26T01:16:26.974Z,213.78
2023-04-26T01:17:26.871Z,215.03
2023-04-26T01:18:26.816Z,215.03
2023-04-26T01:19:33.059Z,216.87
2023-04-26T01:20:26.838Z,215.03
2023-04-26T01:21:26.830Z,214.19
2023-04-26T01:22:26.777Z,214.89
2023-04-26T01:23:26.760Z,217.02
2023-04-26T01:24:32.998Z,215.31
2023-04-26T01:25:26.743Z,215.31
2023-04-26T01:26:26.742Z,216.16
2023-04-26T01:27:26.726Z,214.19
2023-04-26T01:28:26.732Z,216.02
2023-04-26T01:29:26.701Z,216.16
2023-04-26T01:30:32.919Z,215.74
2023-04-26T01:31:26.738Z,216.16
2023-04-26T01:32:26.685Z,216.87
2023-04-26T01:33:26.674Z,215.17
2023-04-26T01:34:26.623Z,215.31
2023-04-26T01:35:26.593Z,216.59
2023-04-26T01:36:32.832Z,215.31
2023-04-26T01:37:26.616Z,215.31
2023-04-26T01:38:26.571Z,216.16
2023-04-26T01:39:26.594Z,217.45
2023-04-26T01:40:26.527Z,217.02
2023-04-26T01:41:26.520Z,216.73
2023-04-26T01:42:32.769Z,216.16
2023-04-26T01:43:26.509Z,217.16
2023-04-26T01:44:26.510Z,216.45
2023-04-26T01:45:26.502Z,217.88
2023-04-26T01:46:26.470Z,216.16
2023-04-26T01:47:26.501Z,216.87
2023-04-26T01:48:32.705Z,217.02
2023-04-26T01:49:26.459Z,216.45
2023-04-26T01:50:26.408Z,217.59
2023-04-26T01:51:26.385Z,217.73
2023-04-26T01:52:26.561Z,217.02
2023-04-26T01:53:26.408Z,216.45
2023-04-26T01:54:32.624Z,217.59
2023-04-26T01:55:26.340Z,217.30
2023-04-26T01:56:26.329Z,216.45
2023-04-26T01:57:26.353Z,218.60
2023-04-26T01:58:26.374Z,217.59
2023-04-26T01:59:32.519Z,219.04
2023-04-26T02:00:26.272Z,217.88
2023-04-26T02:01:26.255Z,217.16
2023-04-26T02:02:26.327Z,218.17
2023-04-26T02:03:26.301Z,215.60
2023-04-26T02:04:32.518Z,217.88
2023-04-26T02:05:26.321Z,216.59
2023-04-26T02:06:26.197Z,217.59
2023-04-26T02:07:26.182Z,218.17
2023-04-26T02:08:26.170Z,218.75
2023-04-26T02:09:26.200Z,219.48
2023-04-26T02:10:32.414Z,218.31
2023-04-26T02:11:26.194Z,219.48
2023-04-26T02:12:26.141Z,219.04
2023-04-26T02:13:26.118Z,218.75
2023-04-26T02:14:26.145Z,216.73
2023-04-26T02:15:26.225Z,220.95
2023-04-26T02:16:32.367Z,220.50
2023-04-26T02:17:26.089Z,219.62
2023-04-26T02:18:26.067Z,220.36
2023-04-26T02:19:26.060Z,219.62
2023-04-26T02:20:26.009Z,219.62
2023-04-26T02:21:26.040Z,221.24
2023-04-26T02:22:32.251Z,219.62
2023-04-26T02:23:26.013Z,219.91
2023-04-26T02:24:26.043Z,220.65
2023-04-26T02:25:26.045Z,219.91
2023-04-26T02:26:25.943Z,219.91
2023-04-26T02:27:32.182Z,219.77
2023-04-26T02:28:26.020Z,217.59
2023-04-26T02:29:42.295Z,220.50
2023-04-26T02:30:27.413Z,219.18
2023-04-26T02:31:25.930Z,219.91
2023-04-26T02:32:25.929Z,221.24
2023-04-26T02:33:32.107Z,219.33
2023-04-26T02:34:25.852Z,220.21
2023-04-26T02:35:25.882Z,221.54
2023-04-26T02:36:25.815Z,220.06
2023-04-26T02:37:25.850Z,221.69
2023-04-26T02:38:32.071Z,220.21
2023-04-26T02:39:25.806Z,217.59
2023-04-26T02:40:25.794Z,218.60
2023-04-26T02:41:25.765Z,220.21
2023-04-26T02:42:25.802Z,219.18
2023-04-26T02:43:32.002Z,217.16
2023-04-26T02:44:25.707Z,220.21
2023-04-26T02:45:25.729Z,220.06
2023-04-26T02:46:25.734Z,219.48
2023-04-26T02:47:25.676Z,220.21
2023-04-26T02:48:31.944Z,219.91
2023-04-26T02:49:25.663Z,218.60
2023-04-26T02:50:25.720Z,218.17
2023-04-26T02:51:25.636Z,218.75
2023-04-26T02:52:25.634Z,218.60
2023-04-26T02:53:31.905Z,222.29
2023-04-26T02:54:25.604Z,218.89
2023-04-26T02:55:25.638Z,219.91
2023-04-26T02:56:25.593Z,219.33
2023-04-26T02:57:25.653Z,220.65
2023-04-26T02:58:25.579Z,221.10
2023-04-26T02:59:31.808Z,222.89
2023-04-26T03:00:25.573Z,221.10
2023-04-26T03:01:25.611Z,218.89
2023-04-26T03:02:25.646Z,220.36
2023-04-26T03:03:25.739Z,218.75
2023-04-26T03:04:31.758Z,219.48
2023-04-26T03:05:25.449Z,219.33
2023-04-26T03:06:25.463Z,221.99
2023-04-26T03:07:25.480Z,218.75
2023-04-26T03:08:25.407Z,221.54
2023-04-26T03:09:31.689Z,223.50
2023-04-26T03:10:25.399Z,221.99
2023-04-26T03:11:25.387Z,222.89
2023-04-26T03:12:25.396Z,223.19
2023-04-26T03:13:25.378Z,223.80
2023-04-26T03:14:31.575Z,220.50
2023-04-26T03:15:25.334Z,221.24
2023-04-26T03:16:25.388Z,221.84
2023-04-26T03:17:25.420Z,220.65
2023-04-26T03:18:25.299Z,219.33
2023-04-26T03:19:31.500Z,221.10
2023-04-26T03:20:25.269Z,220.80
2023-04-26T03:21:25.280Z,220.80
2023-04-26T03:22:25.263Z,225.02
2023-04-26T03:23:25.244Z,219.62
2023-04-26T03:24:25.233Z,224.26
2023-04-26T03:25:31.523Z,219.04
2023-04-26T03:26:25.195Z,221.84
2023-04-26T03:27:25.245Z,222.14
2023-04-26T03:28:25.189Z,219.62
2023-04-26T03:29:25.250Z,223.95
2023-04-26T03:30:31.400Z,221.69
2023-04-26T03:31:25.139Z,224.10
2023-04-26T03:32:25.292Z,222.14
2023-04-26T03:33:25.144Z,222.29
2023-04-26T03:34:25.139Z,220.50
2023-04-26T03:35:25.089Z,223.50
2023-04-26T03:36:31.395Z,222.89
2023-04-26T03:37:25.072Z,223.80
2023-04-26T03:38:25.037Z,223.35
2023-04-26T03:39:25.038Z,223.80
2023-04-26T03:40:25.018Z,224.26
2023-04-26T03:41:31.324Z,221.39
2023-04-26T03:42:25.014Z,225.18
2023-04-26T03:43:25.008Z,223.19
2023-04-26T03:44:24.983Z,225.79
2023-04-26T03:45:24.968Z,223.65
2023-04-26T03:46:31.303Z,224.41
2023-04-26T03:47:24.955Z,221.84
2023-04-26T03:48:24.959Z,223.19
2023-04-26T03:49:25.012Z,224.72
2023-04-26T03:50:24.951Z,223.35
2023-04-26T03:51:31.144Z,223.65
2023-04-26T03:52:24.881Z,225.02
2023-04-26T03:53:24.878Z,226.57
2023-04-26T03:54:24.837Z,223.95
2023-04-26T03:55:24.858Z,225.18
2023-04-26T03:56:24.836Z,223.65
2023-04-26T03:57:31.083Z,223.65
2023-04-26T03:58:24.815Z,224.56
2023-04-26T03:59:24.785Z,229.25
2023-04-26T04:00:24.827Z,223.80
2023-04-26T04:01:24.862Z,223.04
2023-04-26T04:02:24.931Z,222.29
2023-04-26T04:03:31.166Z,223.80
2023-04-26T04:04:24.826Z,224.56
2023-04-26T04:05:24.713Z,224.10
2023-04-26T04:06:24.746Z,225.64
2023-04-26T04:07:24.724Z,223.50
2023-04-26T04:08:24.683Z,224.56
2023-04-26T04:09:30.913Z,222.89
2023-04-26T04:10:24.682Z,223.65
2023-04-26T04:11:24.675Z,224.41
2023-04-26T04:12:24.621Z,224.72
2023-04-26T04:13:24.599Z,222.89
2023-04-26T04:14:24.647Z,224.10
2023-04-26T04:15:30.864Z,224.41
2023-04-26T04:16:24.618Z,223.04
2023-04-26T04:17:24.635Z,222.89
2023-04-26T04:18:24.571Z,224.26
2023-04-26T04:19:24.548Z,223.50
2023-04-26T04:20:24.552Z,224.10
2023-04-26T04:21:30.822Z,223.80
2023-04-26T04:22:24.530Z,225.64
2023-04-26T04:23:24.543Z,224.41
2023-04-26T04:24:24.565Z,224.41
2023-04-26T04:25:24.457Z,224.10
2023-04-26T04:26:30.753Z,225.02
2023-04-26T04:27:24.449Z,225.02
2023-04-26T04:28:24.415Z,224.87
2023-04-26T04:29:25.416Z,223.65
2023-04-26T04:30:24.417Z,225.18
2023-04-26T04:31:24.408Z,228.46
2023-04-26T04:32:30.746Z,224.10
2023-04-26T04:33:24.388Z,223.95
2023-04-26T04:34:24.411Z,223.50
2023-04-26T04:35:24.356Z,224.26
2023-04-26T04:36:24.316Z,224.72
2023-04-26T04:37:30.612Z,223.50
2023-04-26T04:38:25.386Z,226.26
2023-04-26T04:39:24.309Z,224.26
2023-04-26T04:40:24.291Z,224.26
2023-04-26T04:41:24.232Z,225.02
2023-04-26T04:42:24.227Z,224.56
2023-04-26T04:43:30.536Z,223.80
2023-04-26T04:44:24.201Z,222.59
2023-04-26T04:45:24.231Z,225.64
2023-04-26T04:46:24.213Z,222.14
2023-04-26T04:47:24.284Z,225.64
2023-04-26T04:48:24.139Z,221.69
2023-04-26T04:49:25.086Z,222.29
2023-04-26T04:50:24.169Z,222.89
2023-04-26T04:51:24.124Z,220.95
2023-04-26T04:52:24.145Z,220.50
2023-04-26T04:53:24.130Z,221.24
2023-04-26T04:54:30.361Z,223.80
2023-04-26T04:55:24.141Z,221.10
2023-04-26T04:56:24.059Z,223.04
2023-04-26T04:57:24.059Z,223.35
2023-04-26T04:58:24.053Z,220.95
2023-04-26T04:59:24.014Z,222.59
2023-04-26T05:00:30.283Z,224.10
2023-04-26T05:01:24.026Z,224.10
2023-04-26T05:02:24.084Z,221.69
2023-04-26T05:03:24.140Z,224.10
2023-04-26T05:04:24.189Z,221.39
2023-04-26T05:05:30.227Z,221.24
2023-04-26T05:06:23.930Z,221.84
2023-04-26T05:07:24.626Z,218.17
2023-04-26T05:08:23.924Z,218.89
2023-04-26T05:09:23.886Z,220.36
2023-04-26T05:10:30.223Z,220.80
2023-04-26T05:11:23.893Z,220.80
2023-04-26T05:12:23.872Z,220.65
2023-04-26T05:13:23.854Z,219.04
2023-04-26T05:14:23.864Z,221.39
2023-04-26T05:15:30.132Z,219.62
2023-04-26T05:16:23.866Z,221.69
2023-04-26T05:17:23.881Z,219.77
2023-04-26T05:18:23.844Z,219.91
2023-04-26T05:19:23.781Z,218.60
2023-04-26T05:20:30.036Z,219.91
2023-04-26T05:21:23.817Z,218.17
2023-04-26T05:22:23.754Z,218.46
2023-04-26T05:23:23.750Z,218.17
2023-04-26T05:24:23.730Z,218.75
2023-04-26T05:25:23.710Z,218.46
2023-04-26T05:26:29.933Z,217.73
2023-04-26T05:27:23.710Z,217.59
2023-04-26T05:28:23.699Z,217.45
2023-04-26T05:29:23.682Z,219.04
2023-04-26T05:30:23.638Z,218.02
2023-04-26T05:31:23.675Z,218.75
2023-04-26T05:32:29.949Z,218.17
2023-04-26T05:33:23.631Z,219.04
2023-04-26T05:34:23.597Z,217.30
2023-04-26T05:35:23.592Z,217.73
2023-04-26T05:36:23.588Z,217.59
2023-04-26T05:37:30.040Z,216.59
2023-04-26T05:38:23.585Z,216.45
2023-04-26T05:39:23.538Z,215.74
2023-04-26T05:40:23.644Z,214.75
2023-04-26T05:41:23.492Z,216.02
2023-04-26T05:42:23.506Z,216.02
2023-04-26T05:43:29.855Z,216.16
2023-04-26T05:44:23.520Z,215.60
2023-04-26T05:45:23.583Z,215.60
2023-04-26T05:46:23.505Z,214.47
2023-04-26T05:47:23.505Z,215.17
2023-04-26T05:48:23.421Z,214.75
2023-04-26T05:49:29.739Z,214.89
2023-04-26T05:50:23.430Z,213.91
2023-04-26T05:51:23.376Z,215.46
2023-04-26T05:52:23.346Z,213.64
2023-04-26T05:53:23.391Z,213.36
2023-04-26T05:54:29.564Z,214.19
2023-04-26T05:55:23.357Z,212.54
2023-04-26T05:56:23.334Z,212.40
2023-04-26T05:57:23.301Z,213.09
2023-04-26T05:58:23.306Z,211.99
2023-04-26T05:59:23.316Z,212.54
2023-04-26T06:00:29.574Z,210.90
2023-04-26T06:01:23.244Z,210.90
2023-04-26T06:02:23.315Z,211.71
2023-04-26T06:03:23.391Z,210.90
2023-04-26T06:04:23.319Z,210.23
2023-04-26T06:05:29.725Z,209.83
2023-04-26T06:06:23.456Z,210.63
2023-04-26T06:07:23.163Z,208.90
2023-04-26T06:08:23.145Z,209.83
2023-04-26T06:09:23.176Z,207.84
2023-04-26T06:10:23.188Z,209.03
2023-04-26T06:11:29.375Z,206.67
2023-04-26T06:12:23.140Z,206.67
2023-04-26T06:13:23.105Z,206.15
2023-04-26T06:14:30.506Z,205.89
2023-04-26T06:15:24.570Z,206.15
2023-04-26T06:16:23.086Z,205.51
2023-04-26T06:17:29.306Z,204.61
2023-04-26T06:18:23.027Z,205.12
2023-04-26T06:19:23.028Z,203.73
2023-04-26T06:20:23.034Z,203.85
2023-04-26T06:21:23.005Z,203.10
2023-04-26T06:22:29.235Z,202.97
2023-04-26T06:23:22.988Z,201.98
2023-04-26T06:24:23.025Z,202.35
2023-04-26T06:25:23.034Z,201.85
2023-04-26T06:26:22.909Z,200.99
2023-04-26T06:27:22.973Z,201.36
2023-04-26T06:28:29.159Z,200.50
2023-04-26T06:29:22.951Z,199.29
2023-04-26T06:30:22.958Z,199.41
2023-04-26T06:31:22.978Z,198.93
2023-04-26T06:32:22.945Z,198.09
2023-04-26T06:33:22.853Z,197.61
2023-04-26T06:34:29.102Z,197.85
2023-04-26T06:35:22.872Z,197.50
2023-04-26T06:36:22.846Z,196.79
2023-04-26T06:37:22.853Z,195.85
2023-04-26T06:38:22.868Z,195.97
2023-04-26T06:39:29.102Z,196.79
2023-04-26T06:40:22.774Z,195.04
2023-04-26T06:41:22.797Z,195.85
2023-04-26T06:42:22.731Z,195.27
2023-04-26T06:43:22.718Z,194.12
2023-04-26T06:44:22.688Z,194.23
2023-04-26T06:45:29.021Z,193.32
2023-04-26T06:46:22.990Z,192.98
2023-04-26T06:47:22.838Z,192.64
2023-04-26T06:48:24.405Z,193.10
2023-04-26T06:49:22.644Z,190.86
2023-04-26T06:50:22.759Z,190.75
2023-04-26T06:51:28.922Z,191.08
2023-04-26T06:52:22.636Z,189.76
2023-04-26T06:53:23.287Z,190.53
2023-04-26T06:54:22.604Z,189.43
2023-04-26T06:55:22.614Z,188.67
2023-04-26T06:56:22.600Z,187.60
2023-04-26T06:57:28.797Z,187.81
2023-04-26T06:58:22.564Z,187.06
2023-04-26T06:59:22.597Z,186.85
2023-04-26T07:00:22.516Z,186.32
2023-04-26T07:01:22.515Z,186.74
2023-04-26T07:02:22.759Z,185.38
2023-04-26T07:03:28.895Z,186.32
2023-04-26T07:04:22.593Z,186.32
2023-04-26T07:05:22.539Z,185.29
2023-04-26T07:06:22.612Z,184.88
2023-04-26T07:07:22.437Z,184.47
2023-04-26T07:08:22.392Z,183.66
2023-04-26T07:09:28.637Z,182.86
2023-04-26T07:10:22.402Z,182.07
2023-04-26T07:11:24.613Z,181.87
2023-04-26T07:12:22.331Z,180.30
2023-04-26T07:13:22.341Z,179.53
2023-04-26T07:14:28.534Z,179.14
2023-04-26T07:15:22.289Z,180.30
2023-04-26T07:16:22.365Z,179.53
2023-04-26T07:17:22.340Z,177.62
2023-04-26T07:18:22.308Z,177.81
2023-04-26T07:19:28.521Z,177.25
2023-04-26T07:20:22.254Z,177.81
2023-04-26T07:21:22.244Z,176.50
2023-04-26T07:22:22.305Z,176.13
2023-04-26T07:23:22.222Z,176.87
2023-04-26T07:24:22.269Z,176.13
2023-04-26T07:25:28.416Z,175.76
2023-04-26T07:26:22.215Z,175.58
2023-04-26T07:27:22.193Z,176.13
2023-04-26T07:28:22.131Z,174.84
2023-04-26T07:29:22.137Z,174.12
2023-04-26T07:30:28.365Z,173.93
2023-04-26T07:31:22.179Z,174.12
2023-04-26T07:32:22.199Z,174.48
2023-04-26T07:33:22.298Z,174.30
2023-04-26T07:34:22.084Z,174.12
2023-04-26T07:35:28.393Z,173.40
2023-04-26T07:36:23.836Z,172.50
2023-04-26T07:37:22.058Z,171.27
2023-04-26T07:38:22.033Z,170.40
2023-04-26T07:39:22.036Z,169.71
2023-04-26T07:40:22.031Z,169.19
2023-04-26T07:41:29.243Z,170.22
2023-04-26T07:42:21.982Z,168.00
2023-04-26T07:43:21.963Z,167.67
2023-04-26T07:44:21.984Z,166.83
2023-04-26T07:45:22.114Z,167.00
2023-04-26T07:46:21.944Z,166.01
2023-04-26T07:47:28.256Z,165.02
2023-04-26T07:48:21.889Z,166.01
2023-04-26T07:49:21.881Z,163.73
2023-04-26T07:50:21.946Z,163.57
2023-04-26T07:51:21.871Z,163.57
2023-04-26T07:52:21.845Z,162.94
2023-04-26T07:53:28.123Z,160.90
2023-04-26T07:54:21.812Z,160.29
2023-04-26T07:55:21.899Z,159.68
2023-04-26T07:56:21.825Z,158.77
2023-04-26T07:57:21.770Z,158.17
2023-04-26T07:58:21.790Z,158.47
2023-04-26T07:59:28.052Z,158.02
2023-04-26T08:00:21.748Z,157.28
2023-04-26T08:01:21.756Z,156.40
2023-04-26T08:02:27.253Z,155.81
2023-04-26T08:03:23.444Z,154.66
2023-04-26T08:04:28.122Z,153.95
2023-04-26T08:05:21.921Z,153.67
2023-04-26T08:06:21.821Z,152.41
2023-04-26T08:07:21.667Z,152.83
2023-04-26T08:08:21.649Z,152.69
2023-04-26T08:09:21.655Z,152.41
2023-04-26T08:10:28.006Z,152.41
2023-04-26T08:11:21.687Z,152.00
2023-04-26T08:12:21.595Z,151.31
2023-04-26T08:13:21.658Z,152.97
2023-04-26T08:14:21.645Z,153.39
2023-04-26T08:15:21.559Z,154.52
2023-04-26T08:16:27.852Z,154.24
2023-04-26T08:17:21.738Z,155.24
2023-04-26T08:18:21.547Z,154.95
2023-04-26T08:19:21.553Z,154.24
2023-04-26T08:20:21.467Z,154.66
2023-04-26T08:21:27.752Z,155.24
2023-04-26T08:22:21.493Z,155.24
2023-04-26T08:23:21.496Z,154.66
2023-04-26T08:24:21.450Z,154.38
2023-04-26T08:25:21.401Z,153.81
2023-04-26T08:26:27.737Z,152.83
2023-04-26T08:27:21.397Z,153.53
2023-04-26T08:28:21.469Z,154.09
2023-04-26T08:29:21.405Z,155.38
2023-04-26T08:30:21.368Z,154.80
2023-04-26T08:31:27.651Z,155.52
2023-04-26T08:32:21.385Z,157.28
2023-04-26T08:33:21.475Z,157.72
2023-04-26T08:34:21.311Z,159.37
2023-04-26T08:35:21.357Z,159.07
2023-04-26T08:36:27.532Z,159.83
2023-04-26T08:37:21.320Z,161.52
2023-04-26T08:38:21.288Z,163.10
2023-04-26T08:39:21.258Z,163.10
2023-04-26T08:40:21.234Z,164.21
2023-04-26T08:41:21.259Z,164.70
2023-04-26T08:42:27.469Z,165.19
2023-04-26T08:43:21.180Z,165.84
2023-04-26T08:44:21.185Z,165.84
2023-04-26T08:45:21.228Z,164.70
2023-04-26T08:46:21.316Z,165.84
2023-04-26T08:47:21.114Z,165.02
2023-04-26T08:48:27.548Z,163.41
2023-04-26T08:49:21.125Z,162.94
2023-04-26T08:50:21.134Z,163.26
2023-04-26T08:51:21.161Z,160.90
2023-04-26T08:52:21.122Z,160.59
2023-04-26T08:53:27.326Z,159.52
2023-04-26T08:54:21.051Z,158.77
2023-04-26T08:55:21.037Z,158.17
2023-04-26T08:56:21.067Z,158.17
2023-04-26T08:57:21.037Z,157.87
2023-04-26T08:58:27.309Z,157.28
2023-04-26T08:59:20.987Z,156.40
2023-04-26T09:00:21.045Z,156.10
2023-04-26T09:01:20.970Z,155.38
2023-04-26T09:02:21.057Z,155.24
2023-04-26T09:03:27.408Z,156.10
2023-04-26T09:04:21.179Z,155.67
2023-04-26T09:05:20.915Z,155.52
2023-04-26T09:06:20.891Z,154.66
2023-04-26T09:07:20.873Z,155.38
2023-04-26T09:08:27.262Z,154.66
2023-04-26T09:09:20.951Z,154.80
2023-04-26T09:10:20.954Z,155.24
2023-04-26T09:11:20.855Z,154.38
2023-04-26T09:12:20.862Z,154.95
2023-04-26T09:13:27.092Z,154.66
2023-04-26T09:14:20.775Z,154.24
2023-04-26T09:15:20.759Z,153.53
2023-04-26T09:16:20.812Z,154.09
2023-04-26T09:17:20.800Z,152.69
2023-04-26T09:18:27.033Z,152.41
2023-04-26T09:19:20.767Z,153.67
2023-04-26T09:20:20.724Z,153.25
2023-04-26T09:21:20.823Z,153.39
2023-04-26T09:22:20.671Z,152.69
2023-04-26T09:23:27.002Z,153.95
2023-04-26T09:24:20.705Z,153.39
2023-04-26T09:25:21.090Z,154.09
2023-04-26T09:26:20.691Z,154.38
2023-04-26T09:27:20.663Z,154.52
2023-04-26T09:28:26.847Z,153.95
2023-04-26T09:29:20.608Z,153.39
2023-04-26T09:30:20.578Z,153.67
2023-04-26T09:31:20.644Z,154.09
2023-04-26T09:32:20.563Z,153.81
2023-04-26T09:33:20.613Z,153.53
2023-04-26T09:34:26.785Z,153.67
2023-04-26T09:35:20.517Z,154.95
2023-04-26T09:36:20.508Z,153.67
2023-04-26T09:37:20.520Z,154.09
2023-04-26T09:38:20.582Z,154.09
2023-04-26T09:39:26.762Z,154.52
2023-04-26T09:40:20.449Z,152.55
2023-04-26T09:41:20.472Z,152.69
2023-04-26T09:42:20.479Z,151.17
2023-04-26T09:43:20.446Z,150.63
2023-04-26T09:44:20.413Z,149.15
2023-04-26T09:45:26.653Z,148.76
2023-04-26T09:46:20.517Z,148.76
2023-04-26T09:47:20.355Z,146.03
2023-04-26T09:48:20.482Z,144.77
2023-04-26T09:49:20.343Z,144.27
2023-04-26T09:50:26.616Z,143.04
2023-04-26T09:51:20.319Z,142.07
2023-04-26T09:52:20.309Z,142.19
2023-04-26T09:53:20.331Z,139.82
2023-04-26T09:54:20.303Z,141.83
2023-04-26T09:55:34.688Z,141.11
2023-04-26T09:56:21.752Z,140.28
2023-04-26T09:57:20.402Z,139.47
2023-04-26T09:58:20.240Z,139.70
2023-04-26T09:59:20.217Z,138.32
2023-04-26T10:00:20.219Z,139.47
2023-04-26T10:01:26.706Z,138.32
2023-04-26T10:02:20.215Z,137.29
2023-04-26T10:03:20.270Z,137.97
2023-04-26T10:04:20.280Z,137.41
2023-04-26T10:05:20.164Z,137.63
2023-04-26T10:06:26.452Z,140.05
2023-04-26T10:07:20.128Z,138.20
2023-04-26T10:08:20.083Z,138.09
2023-04-26T10:09:20.087Z,137.63
2023-04-26T10:10:20.208Z,139.58
2023-04-26T10:11:20.143Z,139.35
2023-04-26T10:12:26.282Z,139.24
2023-04-26T10:13:20.037Z,139.58
2023-04-26T10:14:20.057Z,138.77
2023-04-26T10:15:20.038Z,139.00
2023-04-26T10:16:20.068Z,137.97
2023-04-26T10:17:26.332Z,138.77
2023-04-26T10:18:20.041Z,138.89
2023-04-26T10:19:20.009Z,139.47
2023-04-26T10:20:19.958Z,141.35
2023-04-26T10:21:19.981Z,140.99
2023-04-26T10:22:26.219Z,141.83
2023-04-26T10:23:19.942Z,142.19
2023-04-26T10:24:19.914Z,142.67
2023-04-26T10:25:19.931Z,144.02
2023-04-26T10:26:19.872Z,144.15
2023-04-26T10:27:19.912Z,144.77
2023-04-26T10:28:26.128Z,145.27
2023-04-26T10:29:19.831Z,146.03
2023-04-26T10:30:19.852Z,146.54
2023-04-26T10:31:19.863Z,147.06
2023-04-26T10:32:19.828Z,148.36
2023-04-26T10:33:19.814Z,149.02
2023-04-26T10:34:26.060Z,150.22
2023-04-26T10:35:19.776Z,151.04
2023-04-26T10:36:19.781Z,151.04
2023-04-26T10:37:19.766Z,151.86
2023-04-26T10:38:19.753Z,152.13
2023-04-26T10:39:19.800Z,152.27
2023-04-26T10:40:25.981Z,151.86
2023-04-26T10:41:19.710Z,151.72
2023-04-26T10:42:20.624Z,151.04
2023-04-26T10:43:19.688Z,151.45
2023-04-26T10:44:19.697Z,150.36
2023-04-26T10:45:19.660Z,149.55
2023-04-26T10:46:25.953Z,149.69
2023-04-26T10:47:19.693Z,148.36
2023-04-26T10:48:19.673Z,148.10
2023-04-26T10:49:19.664Z,146.67
2023-04-26T10:50:19.545Z,146.54
2023-04-26T10:51:25.836Z,146.29
2023-04-26T10:52:19.571Z,146.67
2023-04-26T10:53:19.544Z,144.90
2023-04-26T10:54:19.695Z,145.90
2023-04-26T10:55:19.524Z,145.52
2023-04-26T10:56:19.504Z,145.90
2023-04-26T10:57:25.733Z,145.15
2023-04-26T10:58:19.471Z,145.78
2023-04-26T10:59:36.265Z,146.03
2023-04-26T11:00:21.052Z,145.90
2023-04-26T11:01:19.459Z,145.90
2023-04-26T11:02:19.449Z,147.19
2023-04-26T11:03:25.750Z,147.06
2023-04-26T11:04:19.469Z,147.32
2023-04-26T11:05:19.454Z,148.10
2023-04-26T11:06:19.437Z,148.10
2023-04-26T11:07:19.384Z,148.76
2023-04-26T11:08:25.607Z,149.29
2023-04-26T11:09:19.339Z,150.36
2023-04-26T11:10:19.316Z,148.76
2023-04-26T11:11:19.310Z,149.69
2023-04-26T11:12:19.336Z,149.15
2023-04-26T11:13:25.552Z,148.76
2023-04-26T11:14:19.269Z,148.89
2023-04-26T11:15:19.317Z,148.89
2023-04-26T11:16:19.366Z,148.10
2023-04-26T11:17:19.266Z,147.97
2023-04-26T11:18:25.501Z,147.71
2023-04-26T11:19:19.436Z,146.93
2023-04-26T11:20:19.237Z,145.40
2023-04-26T11:21:19.176Z,145.40
2023-04-26T11:23:04.171Z,233.64
2023-04-26T11:24:10.005Z,194.92
2023-04-26T11:25:03.710Z,177.62
2023-04-26T11:26:02.695Z,164.86
2023-04-26T11:27:03.668Z,156.40
2023-04-26T11:28:03.675Z,151.86
2023-04-26T11:29:09.889Z,147.58
2023-04-26T11:30:02.688Z,144.15
2023-04-26T11:31:02.673Z,142.55
2023-04-26T11:32:03.586Z,140.87
2023-04-26T11:33:02.681Z,140.17
2023-04-26T11:34:08.880Z,139.47
2023-04-26T11:35:03.519Z,139.24
2023-04-26T11:36:02.635Z,137.63
2023-04-26T11:37:02.544Z,136.96
2023-04-26T11:38:02.554Z,136.73
2023-04-26T11:39:02.595Z,137.41
2023-04-26T11:40:08.839Z,137.75
2023-04-26T11:41:03.518Z,138.09
2023-04-26T11:42:02.574Z,138.77
2023-04-26T11:43:02.505Z,138.77
2023-04-26T11:44:02.513Z,139.12
2023-04-26T11:45:02.498Z,139.93
2023-04-26T11:46:08.916Z,140.87
2023-04-26T11:47:02.508Z,140.76
2023-04-26T11:48:02.501Z,140.28
2023-04-26T11:49:02.420Z,140.76
2023-04-26T11:50:02.463Z,140.64
2023-04-26T11:51:08.683Z,140.87
2023-04-26T11:52:02.370Z,140.87
2023-04-26T11:53:02.415Z,140.40
2023-04-26T11:54:02.355Z,142.31
2023-04-26T11:55:03.318Z,140.05
2023-04-26T11:56:03.331Z,140.87
2023-04-26T11:57:08.589Z,139.70
2023-04-26T11:58:03.245Z,139.12
2023-04-26T11:59:02.383Z,138.54
2023-04-26T12:00:02.280Z,137.86
2023-04-26T12:01:02.271Z,136.40
2023-04-26T12:02:09.526Z,135.41
2023-04-26T12:03:03.457Z,134.00
2023-04-26T12:04:02.499Z,131.79
2023-04-26T12:05:03.294Z,130.05
2023-04-26T12:06:03.159Z,128.75
2023-04-26T12:07:08.577Z,125.85
2023-04-26T12:08:03.145Z,123.25
2023-04-26T12:09:02.260Z,120.59
2023-04-26T12:10:02.143Z,117.54
2023-04-26T12:11:03.107Z,115.92
2023-04-26T12:12:09.428Z,114.73
2023-04-26T12:13:03.068Z,114.18
2023-04-26T12:14:03.108Z,113.40
2023-04-26T12:15:02.119Z,114.65
2023-04-26T12:16:05.277Z,115.76
2023-04-26T12:17:03.716Z,117.05
2023-04-26T12:18:09.343Z,117.46
2023-04-26T12:19:03.015Z,118.37
2023-04-26T12:20:02.978Z,120.94
2023-04-26T12:21:02.988Z,122.44
2023-04-26T12:22:02.063Z,122.53
2023-04-26T12:23:12.007Z,124.54
2023-04-26T12:24:02.954Z,126.22
2023-04-26T12:25:01.982Z,127.57
2023-04-26T12:26:02.904Z,128.95
2023-04-26T12:27:02.603Z,130.35
2023-04-26T12:28:01.939Z,132.10
2023-04-26T12:29:09.132Z,132.83